Aviation Digital Data Service (ADDS)

Output produced by METARs form (0556 UTC 29 May 2017)
found at http://www.aviationweather.gov/adds/metars/
 
TAF AMD KBAD 290330Z 2903/3008 VRB06KT 8000 -SHRA FEW010 OVC025 QNH2988INS 
     TEMPO 2903/2904 6000 -TSRA OVC020CB 
     BECMG 2906/2907 VRB06KT 8000 BR SCT005 OVC020 QNH2990INS 
     BECMG 2912/2913 03006KT 9999 NSW SCT020 BKN040 QNH2992INS 
     BECMG 2917/2918 05009KT 8000 -SHRA VCTS SCT015 BKN035CB QNH2995INS 
     BECMG 2922/2923 04009KT 9999 NSW BKN010 OVC020 QNH2995INS TX28/2921Z TN20/3002Z LAST NO AMDS AFT 2903 NEXT 3010
       
KBAF 290527Z 2906/3006 14004KT P6SM BKN060 
     FM290800 06004KT P6SM BKN050 
     FM291200 06007KT 5SM -RA OVC060 
     FM291700 08007KT 2SM -RA BR OVC020 
     FM292100 07006KT P6SM OVC020 
     FM300200 11005KT P6SM BKN010
       
KBBD 290520Z 2906/3006 04009KT P6SM OVC025 
     FM290900 05007KT P6SM OVC015 
     FM292000 07008KT P6SM BKN050 AMD NOT SKED
       
KBBG 290520Z 2906/3006 26006KT P6SM SKC
       
KBCB 290533Z 2906/3006 00000KT P6SM BKN050 
     FM290900 29004KT P6SM SCT040 WS020/29030KT 
     TEMPO 2911/2913 BKN025 
     FM291600 28007KT P6SM SCT200 
     FM300500 00000KT P6SM BKN050
       
KBCE 290520Z 2906/3006 27008KT P6SM SKC 
     FM291700 14010KT P6SM SCT100 
     FM300200 28007KT P6SM SKC
       
KBDL 290527Z 2906/3012 13005KT P6SM BKN070 
     FM290800 06005KT P6SM BKN070 
     FM291200 06007KT 5SM -RA OVC060 
     FM291700 07008KT 2SM -RA BR OVC020 
     FM292100 06006KT P6SM OVC020 
     FM300400 11005KT P6SM BKN010
       
KBDR 290232Z 2903/2924 12006KT P6SM SCT015 BKN050 
     FM290600 08012G17KT P6SM -RA OVC015 
     FM291000 08017G22KT 5SM -RA OVC007 
     FM291300 08017G22KT 2SM RA BR OVC007 
     PROB30 2913/2917 -TSRA SCT007 BKN015CB 
     FM291700 06010KT 2SM -DZ BR OVC005 
     FM292200 03009KT 4SM BR OVC010
       
KBED 290527Z 2906/3006 15006KT P6SM SCT080 
     FM290800 11006KT 4SM BR BKN080 
     FM291100 09008KT P6SM BKN050 
     FM291500 09011KT P6SM VCSH OVC020 
     FM291700 09010KT 4SM -RA OVC020 
     FM300000 05006KT 5SM BR OVC008
       
KBFD 290546Z 2906/3006 18006KT P6SM -SHRA SCT007 BKN100 
     TEMPO 2906/2907 1SM -TSRA BR BKN007 OVC020CB 
     FM290700 22007KT 2SM -SHRA BR BKN004 OVC009 
     FM291200 27010G20KT P6SM BKN025 
     FM291500 28010G20KT P6SM BKN035 
     FM292200 26007KT P6SM SCT030
       
KBFF 290535Z 2906/3006 28007KT P6SM BKN150 
     FM291700 32012G20KT P6SM SCT070 
     FM300100 05005KT P6SM SKC
       
KBFI 290539Z 2906/3006 VRB03KT P6SM SKC 
     FM290900 VRB03KT P6SM VCFG FEW015 
     FM291100 VRB03KT P6SM VCFG OVC015 
     FM291800 20006KT P6SM BKN019 
     FM291900 28005KT P6SM FEW040 SCT250 
     FM300300 VRB03KT P6SM FEW040 SCT060 BKN250
       
KBFL 290520Z 2906/3006 32008KT P6SM SKC
       
KBFM 290530Z 2906/3006 34003KT P6SM BKN015 OVC030 
     FM290900 VRB03KT P6SM VCTS SCT005 BKN015CB 
     FM291200 VRB10G20KT 3SM TSRA SCT005 OVC015CB 
     TEMPO 2913/2916 1SM TSRA
       
KBGM 290528Z 2906/3006 15010KT P6SM -SHRA OVC025 
     FM290700 16010KT 5SM -SHRA BR OVC020 
     FM291100 17009KT P6SM -RA OVC009 
     FM291500 16011KT P6SM BKN025 OVC035 
     FM291800 18009KT P6SM -SHRA SCT025 BKN040 
     FM292300 17006KT P6SM FEW035 
     FM300500 17005KT P6SM BKN008
       
KBGR 290539Z 2906/3006 16004KT P6SM BKN008 
     FM291500 15007KT P6SM SCT015 
     FM291900 15009KT P6SM BKN015 
     FM300200 14004KT 3SM -SHRA OVC008
       
KBHB 290539Z 2906/3006 17004KT P6SM SCT008 
     FM290800 16004KT P6SM BKN003 
     FM291200 14006KT P6SM SCT003 
     FM292000 13008KT P6SM BKN008 
     FM300300 12006KT P6SM -SHRA OVC008 
     FM300400 12005KT P6SM VCSH OVC003
       
KBHM 290520Z 2906/3006 25006KT P6SM BKN250 
     FM291000 25006KT P6SM VCSH BKN080 
     FM291800 25007KT P6SM VCTS BKN040CB
       
TAF AMD KBIF 290333Z 2903/3004 10009KT 9999 FEW150 QNH3002INS 
     TEMPO 2905/2909 10020G30KT 520009 
     BECMG 2917/2918 11012G18KT 9999 VCTS SCT080CB QNH2992INS 
     TEMPO 2921/3003 12025G35KT 530009 
     BECMG 3002/3003 23012G20KT 9000 -SHRA VCTS OVC030CB QNH2998INS TX28/2923Z TN15/2912Z
       
KBIH 290537Z 2906/3006 31007KT P6SM SKC 
     FM291700 VRB04KT P6SM SKC 
     FM292000 17010KT P6SM FEW110 BKN250 
     FM300500 33006KT P6SM BKN250
       
KBIL 290527Z 2906/3006 34008KT P6SM FEW100 
     FM291800 33008KT P6SM FEW100 
     FM300000 06008KT P6SM FEW200
       
KBIS 290524Z 2906/3006 33006KT P6SM FEW040 SCT100 
     FM291200 31014KT P6SM BKN035 BKN050 
     FM291800 32018G27KT P6SM VCSH SCT045 BKN060 
     FM300000 33015G23KT P6SM FEW060 SCT080 
     FM300200 33009KT P6SM FEW060 SCT100
       
KBJC 290542Z 2906/3006 VRB05KT P6SM SCT080 BKN130 
     FM290900 02007KT P6SM VCSH SCT060 BKN130 
     FM291100 VRB05KT P6SM FEW070 SCT120 
     FM291700 08006KT P6SM SCT060 BKN100 
     TEMPO 2920/2924 VRB15G30KT -TSRA BKN050CB 
     FM300000 11007KT P6SM VCSH SCT070 BKN100 
     FM300300 24005KT P6SM SCT080 BKN120
       
KBJI 290520Z 2906/3006 31010KT P6SM VCSH BKN020 
     FM291800 30014G24KT P6SM OVC015 
     FM291900 30014KT P6SM OVC020
       
KBKE 290520Z 2906/3006 VRB05KT P6SM SKC
       
TAF AMD KBKF 290508Z 2905/3007 12009KT 9999 FEW150 QNH3019INS 
     BECMG 2917/2918 06012KT 9999 VCTS SCT080CB QNH3020INS 
     TEMPO 2921/2924 06015G25KT 8000 -TSRA BKN050CB 
     BECMG 3000/3001 12009KT 9999 NSW FEW100 SCT150 QNH3023INS TX21/2921Z TN08/2911Z
       
KBKW 290546Z 2906/3006 25006KT P6SM SCT025 BKN035 
     TEMPO 2906/2910 BKN025 
     FM291000 27010G17KT P6SM OVC015 
     FM291300 28009KT P6SM BKN025 
     FM291600 29008KT P6SM BKN035 
     FM292000 27006KT P6SM SCT050 
     FM300200 23004KT P6SM SCT050
       
KBLF 290533Z 2906/3006 26007KT P6SM VCSH BKN050 
     TEMPO 2907/2911 OVC020 
     FM291100 27008KT P6SM VCSH BKN025 
     FM291300 28007KT P6SM BKN035 
     FM291500 28007KT P6SM SCT040 
     FM300200 VRB03KT P6SM BKN050
       
KBLH 290521Z 2906/3006 25010KT P6SM SKC 
     FM291000 34005KT P6SM FEW250 
     FM291900 18007KT P6SM BKN250 
     FM300300 25008KT P6SM BKN250
       
KBLI 290539Z 2906/3006 17004KT P6SM SKC 
     FM291500 17011KT P6SM SCT009 
     FM291800 20008KT P6SM SCT250 
     FM300200 17008KT P6SM SCT060 BKN250
       
TAF KBLV 290000Z 2900/3006 29009KT 9999 FEW060 QNH2983INS 
     BECMG 2914/2915 27012G18KT 9999 FEW250 QNH2989INS 
     BECMG 2920/2921 27012KT 9999 OVC060 QNH2988INS 
     BECMG 2922/2923 25009KT 8000 -RA OVC050 QNH2987INS 
     TEMPO 3000/3002 30012G18KT -TSRA OVC040CB 
     BECMG 3002/3003 31009KT 9999 NSW SCT040 OVC060 QNH2992INS TX28/2921Z TN15/2911Z
       
KBMG 290520Z 2906/3006 VRB03KT P6SM FEW250 
     FM291700 25007KT P6SM FEW250 
     FM300200 24004KT P6SM BKN100 AMD LTD TO CLD VIS AND WIND TIL 291300
       
KBMI 290520Z 2906/3006 22005KT P6SM SCT100 
     FM291500 26013G21KT P6SM SCT200 
     FM300000 28008KT P6SM FEW200
       
KBNA 282322Z 2900/2924 25007KT P6SM BKN050 BKN250 
     FM290300 23006KT P6SM VCSH BKN050 
     FM290500 28004KT P6SM SCT050 
     FM290800 34002KT 4SM BR SCT030 
     FM291400 32005KT P6SM SCT030 
     FM292100 27004KT P6SM SCT050
       
KBNO 290520Z 2906/3006 VRB06KT P6SM SKC
       
KBOI 290520Z 2906/3006 VRB06KT P6SM SKC
       
KBOS 290527Z 2906/3012 15008KT P6SM SCT040 BKN080 
     FM291500 09014KT P6SM VCSH SCT010 BKN040 
     FM291700 08013KT 4SM -RA BR OVC020 
     FM300000 05009KT 5SM BR OVC010 
     FM300900 06005KT P6SM BKN008
       
KBPI 290532Z 2906/3006 35007KT P6SM FEW090 
     FM292100 VRB06KT P6SM SCT090 
     FM292300 34006KT P6SM VCSH BKN080 
     FM300300 35006KT P6SM SCT080
       
KBPK 290531Z 2906/3006 VRB03KT P6SM SCT250 
     FM291400 27007KT P6SM FEW040 SCT250 
     FM300000 VRB03KT P6SM BKN250
       
KBPT 290520Z 2906/3006 36010KT P6SM -RA VCTS SCT025CB 
     TEMPO 2906/2908 5SM -TSRA BKN025CB 
     FM290900 VRB05KT P6SM BKN070 
     FM291500 20009KT P6SM VCTS SCT025CB 
     FM300200 VRB03KT P6SM BKN250
       
KBRD 290537Z 2906/3006 29009KT P6SM VCSH SCT040 BKN080 
     TEMPO 2907/2908 BKN015 
     FM290800 29008KT P6SM OVC015 
     FM291200 29011KT P6SM VCSH OVC008 
     FM291500 30012G20KT P6SM VCSH OVC012 
     FM292100 30014G22KT P6SM BKN025 
     FM300200 30011KT P6SM BKN025
       
KBRL 290520Z 2906/3006 26006KT P6SM SCT100 
     FM291600 29013G23KT P6SM SCT070 
     FM300000 29009KT P6SM SCT050
       
KBRO 290550Z 2906/3006 13012KT P6SM SCT015 BKN025 
     FM290800 15008KT P6SM VCTS BKN025CB 
     TEMPO 2909/2913 4SM TSRA OVC030CB 
     FM291800 12013KT P6SM VCTS BKN040CB 
     FM300000 09008KT P6SM SCT050 BKN150
       
KBTL 290540Z 2906/3006 23007KT P6SM SKC 
     FM291500 25016G22KT P6SM SKC 
     FM300000 24008KT P6SM BKN250
       
KBTM 290520Z 2906/3006 VRB05KT P6SM FEW100
       
KBTR 290520Z 2906/3006 26007KT P6SM VCSH SCT040 BKN150 
     TEMPO 2907/2910 4SM -TSRA OVC040CB 
     FM291100 24004KT P6SM OVC090 
     FM291500 25004KT P6SM BKN060 
     FM292100 19004KT P6SM VCTS BKN070CB
       
KBTV 290537Z 2906/3006 15007KT P6SM BKN120 
     FM291400 15012G19KT P6SM VCSH BKN080 
     FM291500 16012G19KT P6SM -SHRA OVC050 
     FM291700 15011G17KT 6SM -SHRA BR OVC035 
     FM292100 16011KT P6SM VCSH BKN035 
     FM300100 16010KT P6SM SCT035
       
KBUF 290539Z 2906/3006 20010KT P6SM VCSH OVC060 
     FM290800 20006KT 6SM -SHRA VCTS OVC060CB 
     FM291200 22009KT 6SM -SHRA OVC007 
     FM291300 23012G18KT P6SM VCSH BKN007 
     FM291600 23015G22KT P6SM SCT250 
     FM292200 23011KT P6SM FEW250 
     FM300300 19008KT P6SM VCSH BKN070
       
KBUR 290538Z 2906/3006 VRB05KT P6SM SKC 
     FM291100 VRB03KT 5SM BR SKC 
     FM291600 VRB03KT P6SM SKC 
     FM292000 15007KT P6SM SKC 
     FM300300 VRB05KT P6SM SCT010
       
KBVI 290522Z 2906/3006 23005KT P6SM -SHRA SCT025 OVC035 
     TEMPO 2906/2909 5SM -SHRA BKN025 
     FM290900 25008KT P6SM VCSH BKN025 
     FM291200 28012KT P6SM SCT100 
     FM300300 21005KT P6SM SCT100 AMD NOT SKED
       
KBVO 290520Z 2906/3006 VRB03KT P6SM FEW250 
     FM291500 25006KT P6SM SCT100
       
KBWG 290520Z 2906/3006 25004KT P6SM SCT050 BKN250 
     TEMPO 2908/2911 5SM BR SCT008 BKN012 
     FM291100 25003KT 5SM BR SCT008 SCT012 BKN250 
     FM291300 23006KT P6SM FEW050 BKN250
       
KBWI 290541Z 2906/3012 07005KT 4SM -DZ BR BKN007 OVC011 
     FM291300 00000KT 4SM BR OVC010 
     FM291600 27004KT P6SM BKN025 
     FM291900 29005KT P6SM SCT040 
     FM292300 20005KT P6SM BKN060 
     FM300400 11005KT P6SM BKN035 
     FM300900 08004KT 3SM BR BKN010
       
KBYI 290520Z 2906/3006 VRB06KT P6SM FEW050
       
KBZN 290520Z 2906/3006 13005KT P6SM FEW060 SCT120